sensor_id;sensor_type;location;lat;lon;timestamp;P1;durP1;ratioP1;P2;durP2;ratioP2
16878;SDS011;8556;52.218;9.884;2022-12-18T00:02:01;33.60;;;20.17;;
16878;SDS011;8556;52.218;9.884;2022-12-18T00:04:28;32.43;;;19.40;;
16878;SDS011;8556;52.218;9.884;2022-12-18T00:06:55;33.67;;;19.43;;
16878;SDS011;8556;52.218;9.884;2022-12-18T00:09:22;27.93;;;17.53;;
16878;SDS011;8556;52.218;9.884;2022-12-18T00:11:49;33.20;;;18.27;;
16878;SDS011;8556;52.218;9.884;2022-12-18T00:14:17;30.70;;;17.53;;
16878;SDS011;8556;52.218;9.884;2022-12-18T00:16:44;28.87;;;17.80;;
16878;SDS011;8556;52.218;9.884;2022-12-18T00:19:12;29.57;;;17.47;;
16878;SDS011;8556;52.218;9.884;2022-12-18T00:21:39;31.80;;;17.47;;
16878;SDS011;8556;52.218;9.884;2022-12-18T00:24:07;28.23;;;17.77;;
16878;SDS011;8556;52.218;9.884;2022-12-18T00:26:34;30.87;;;17.87;;
16878;SDS011;8556;52.218;9.884;2022-12-18T00:29:04;28.10;;;16.63;;
16878;SDS011;8556;52.218;9.884;2022-12-18T00:31:33;29.33;;;15.90;;
16878;SDS011;8556;52.218;9.884;2022-12-18T00:34:00;26.27;;;15.07;;
16878;SDS011;8556;52.218;9.884;2022-12-18T00:36:28;24.70;;;14.93;;
16878;SDS011;8556;52.218;9.884;2022-12-18T00:38:57;26.47;;;15.73;;
16878;SDS011;8556;52.218;9.884;2022-12-18T00:41:25;25.47;;;15.00;;
16878;SDS011;8556;52.218;9.884;2022-12-18T00:44:11;27.97;;;15.30;;
16878;SDS011;8556;52.218;9.884;2022-12-18T00:46:40;25.70;;;15.13;;
16878;SDS011;8556;52.218;9.884;2022-12-18T00:49:08;26.07;;;15.17;;
16878;SDS011;8556;52.218;9.884;2022-12-18T00:51:37;27.50;;;14.47;;
16878;SDS011;8556;52.218;9.884;2022-12-18T00:54:04;29.60;;;15.37;;
16878;SDS011;8556;52.218;9.884;2022-12-18T00:56:31;25.90;;;15.20;;
16878;SDS011;8556;52.218;9.884;2022-12-18T00:58:58;25.10;;;14.97;;
16878;SDS011;8556;52.218;9.884;2022-12-18T01:01:24;24.70;;;13.70;;
16878;SDS011;8556;52.218;9.884;2022-12-18T01:03:53;25.17;;;13.33;;
16878;SDS011;8556;52.218;9.884;2022-12-18T01:06:22;22.40;;;12.93;;
16878;SDS011;8556;52.218;9.884;2022-12-18T01:08:48;23.67;;;14.27;;
16878;SDS011;8556;52.218;9.884;2022-12-18T01:11:16;23.47;;;14.20;;
16878;SDS011;8556;52.218;9.884;2022-12-18T01:13:45;27.63;;;15.03;;
16878;SDS011;8556;52.218;9.884;2022-12-18T01:16:12;29.60;;;15.97;;
16878;SDS011;8556;52.218;9.884;2022-12-18T01:18:40;27.20;;;15.63;;
16878;SDS011;8556;52.218;9.884;2022-12-18T01:21:08;26.90;;;14.33;;
16878;SDS011;8556;52.218;9.884;2022-12-18T01:23:37;30.70;;;16.37;;
16878;SDS011;8556;52.218;9.884;2022-12-18T01:26:04;28.13;;;16.77;;
16878;SDS011;8556;52.218;9.884;2022-12-18T01:28:32;27.67;;;15.60;;
16878;SDS011;8556;52.218;9.884;2022-12-18T01:31:08;27.27;;;15.63;;
16878;SDS011;8556;52.218;9.884;2022-12-18T01:33:39;25.90;;;13.80;;
16878;SDS011;8556;52.218;9.884;2022-12-18T01:36:07;24.87;;;14.47;;
16878;SDS011;8556;52.218;9.884;2022-12-18T01:38:40;28.50;;;15.10;;
16878;SDS011;8556;52.218;9.884;2022-12-18T01:41:08;26.20;;;14.43;;
16878;SDS011;8556;52.218;9.884;2022-12-18T01:43:42;26.33;;;14.13;;
16878;SDS011;8556;52.218;9.884;2022-12-18T01:46:10;22.30;;;13.17;;
16878;SDS011;8556;52.218;9.884;2022-12-18T01:48:37;30.30;;;15.07;;
16878;SDS011;8556;52.218;9.884;2022-12-18T01:51:06;25.70;;;14.17;;
16878;SDS011;8556;52.218;9.884;2022-12-18T01:53:38;24.63;;;14.93;;
16878;SDS011;8556;52.218;9.884;2022-12-18T01:56:07;27.47;;;14.70;;
16878;SDS011;8556;52.218;9.884;2022-12-18T01:58:37;25.63;;;15.10;;
16878;SDS011;8556;52.218;9.884;2022-12-18T02:01:09;26.30;;;15.07;;
16878;SDS011;8556;52.218;9.884;2022-12-18T02:03:36;26.07;;;14.57;;
16878;SDS011;8556;52.218;9.884;2022-12-18T02:06:06;23.93;;;13.53;;
16878;SDS011;8556;52.218;9.884;2022-12-18T02:08:40;22.67;;;14.03;;
16878;SDS011;8556;52.218;9.884;2022-12-18T02:11:15;21.47;;;12.10;;
16878;SDS011;8556;52.218;9.884;2022-12-18T02:13:50;20.13;;;11.87;;
16878;SDS011;8556;52.218;9.884;2022-12-18T02:16:21;23.83;;;13.37;;
16878;SDS011;8556;52.218;9.884;2022-12-18T02:18:53;22.30;;;12.10;;
16878;SDS011;8556;52.218;9.884;2022-12-18T02:21:27;22.87;;;12.00;;
16878;SDS011;8556;52.218;9.884;2022-12-18T02:24:03;22.43;;;12.43;;
16878;SDS011;8556;52.218;9.884;2022-12-18T02:26:43;21.97;;;13.00;;
16878;SDS011;8556;52.218;9.884;2022-12-18T02:29:13;21.27;;;11.87;;
16878;SDS011;8556;52.218;9.884;2022-12-18T02:31:43;22.27;;;11.83;;
16878;SDS011;8556;52.218;9.884;2022-12-18T02:34:15;20.00;;;11.10;;
16878;SDS011;8556;52.218;9.884;2022-12-18T02:36:44;20.67;;;11.87;;
16878;SDS011;8556;52.218;9.884;2022-12-18T02:39:13;19.67;;;11.17;;
16878;SDS011;8556;52.218;9.884;2022-12-18T02:41:42;20.17;;;10.83;;
16878;SDS011;8556;52.218;9.884;2022-12-18T02:44:10;21.03;;;11.47;;
16878;SDS011;8556;52.218;9.884;2022-12-18T02:46:39;22.67;;;11.03;;
16878;SDS011;8556;52.218;9.884;2022-12-18T02:49:11;21.80;;;10.73;;
16878;SDS011;8556;52.218;9.884;2022-12-18T02:51:48;19.83;;;11.00;;
16878;SDS011;8556;52.218;9.884;2022-12-18T02:54:21;21.27;;;11.43;;
16878;SDS011;8556;52.218;9.884;2022-12-18T02:57:00;20.50;;;11.87;;
16878;SDS011;8556;52.218;9.884;2022-12-18T02:59:33;21.07;;;11.90;;
16878;SDS011;8556;52.218;9.884;2022-12-18T03:02:08;18.53;;;10.40;;
16878;SDS011;8556;52.218;9.884;2022-12-18T03:04:43;19.27;;;10.90;;
16878;SDS011;8556;52.218;9.884;2022-12-18T03:07:15;18.30;;;10.57;;
16878;SDS011;8556;52.218;9.884;2022-12-18T03:09:46;20.20;;;11.10;;
16878;SDS011;8556;52.218;9.884;2022-12-18T03:12:19;21.20;;;11.00;;
16878;SDS011;8556;52.218;9.884;2022-12-18T03:14:48;19.60;;;10.50;;
16878;SDS011;8556;52.218;9.884;2022-12-18T03:17:19;20.77;;;11.50;;
16878;SDS011;8556;52.218;9.884;2022-12-18T03:19:50;20.00;;;11.00;;
16878;SDS011;8556;52.218;9.884;2022-12-18T03:22:19;18.03;;;10.37;;
16878;SDS011;8556;52.218;9.884;2022-12-18T03:24:48;20.63;;;10.83;;
16878;SDS011;8556;52.218;9.884;2022-12-18T03:27:17;20.67;;;11.97;;
16878;SDS011;8556;52.218;9.884;2022-12-18T03:29:47;20.50;;;11.40;;
16878;SDS011;8556;52.218;9.884;2022-12-18T03:32:20;20.47;;;11.77;;
16878;SDS011;8556;52.218;9.884;2022-12-18T03:34:51;20.90;;;10.57;;
16878;SDS011;8556;52.218;9.884;2022-12-18T03:37:23;18.80;;;10.60;;
16878;SDS011;8556;52.218;9.884;2022-12-18T03:39:50;20.43;;;10.33;;
16878;SDS011;8556;52.218;9.884;2022-12-18T03:42:18;20.37;;;10.30;;
16878;SDS011;8556;52.218;9.884;2022-12-18T03:44:52;18.87;;;10.10;;
16878;SDS011;8556;52.218;9.884;2022-12-18T03:47:27;17.60;;;8.97;;
16878;SDS011;8556;52.218;9.884;2022-12-18T03:49:59;17.50;;;8.87;;
16878;SDS011;8556;52.218;9.884;2022-12-18T03:52:36;16.37;;;8.80;;
16878;SDS011;8556;52.218;9.884;2022-12-18T03:55:05;19.50;;;9.97;;
16878;SDS011;8556;52.218;9.884;2022-12-18T03:57:35;16.60;;;9.73;;
16878;SDS011;8556;52.218;9.884;2022-12-18T04:00:06;17.83;;;9.77;;
16878;SDS011;8556;52.218;9.884;2022-12-18T04:02:34;19.20;;;9.73;;
16878;SDS011;8556;52.218;9.884;2022-12-18T04:05:04;19.37;;;8.80;;
16878;SDS011;8556;52.218;9.884;2022-12-18T04:07:33;18.30;;;11.10;;
16878;SDS011;8556;52.218;9.884;2022-12-18T04:10:01;22.07;;;11.63;;
16878;SDS011;8556;52.218;9.884;2022-12-18T04:12:29;19.60;;;11.10;;
16878;SDS011;8556;52.218;9.884;2022-12-18T04:14:58;20.90;;;10.70;;
16878;SDS011;8556;52.218;9.884;2022-12-18T04:17:24;18.87;;;10.10;;
16878;SDS011;8556;52.218;9.884;2022-12-18T04:19:51;17.20;;;9.57;;
16878;SDS011;8556;52.218;9.884;2022-12-18T04:22:18;19.63;;;9.40;;
16878;SDS011;8556;52.218;9.884;2022-12-18T04:24:45;16.00;;;8.50;;
16878;SDS011;8556;52.218;9.884;2022-12-18T04:27:11;20.33;;;9.90;;
16878;SDS011;8556;52.218;9.884;2022-12-18T04:29:38;16.10;;;8.13;;
16878;SDS011;8556;52.218;9.884;2022-12-18T04:32:07;16.77;;;8.60;;
16878;SDS011;8556;52.218;9.884;2022-12-18T04:34:34;14.50;;;8.37;;
16878;SDS011;8556;52.218;9.884;2022-12-18T04:37:00;17.60;;;8.93;;
16878;SDS011;8556;52.218;9.884;2022-12-18T04:39:27;17.33;;;8.33;;
16878;SDS011;8556;52.218;9.884;2022-12-18T04:41:54;19.20;;;8.47;;
16878;SDS011;8556;52.218;9.884;2022-12-18T04:44:21;18.00;;;8.83;;
16878;SDS011;8556;52.218;9.884;2022-12-18T04:46:47;17.77;;;8.63;;
16878;SDS011;8556;52.218;9.884;2022-12-18T04:49:16;14.63;;;8.23;;
16878;SDS011;8556;52.218;9.884;2022-12-18T04:51:42;18.03;;;8.30;;
16878;SDS011;8556;52.218;9.884;2022-12-18T04:54:09;13.10;;;7.50;;
16878;SDS011;8556;52.218;9.884;2022-12-18T04:56:36;13.20;;;7.07;;
16878;SDS011;8556;52.218;9.884;2022-12-18T04:59:03;14.47;;;7.33;;
16878;SDS011;8556;52.218;9.884;2022-12-18T05:01:30;15.67;;;8.20;;
16878;SDS011;8556;52.218;9.884;2022-12-18T05:03:59;16.27;;;7.97;;
16878;SDS011;8556;52.218;9.884;2022-12-18T05:06:27;18.27;;;9.70;;
16878;SDS011;8556;52.218;9.884;2022-12-18T05:08:54;15.77;;;8.07;;
16878;SDS011;8556;52.218;9.884;2022-12-18T05:11:21;17.00;;;7.67;;
16878;SDS011;8556;52.218;9.884;2022-12-18T05:13:48;16.77;;;8.63;;
16878;SDS011;8556;52.218;9.884;2022-12-18T05:16:15;15.33;;;8.37;;
16878;SDS011;8556;52.218;9.884;2022-12-18T05:18:42;16.17;;;8.13;;
16878;SDS011;8556;52.218;9.884;2022-12-18T05:21:09;13.27;;;7.90;;
16878;SDS011;8556;52.218;9.884;2022-12-18T05:23:37;15.00;;;8.07;;
16878;SDS011;8556;52.218;9.884;2022-12-18T05:26:04;16.00;;;7.87;;
16878;SDS011;8556;52.218;9.884;2022-12-18T05:28:33;15.27;;;7.63;;
16878;SDS011;8556;52.218;9.884;2022-12-18T05:31:02;18.03;;;8.60;;
16878;SDS011;8556;52.218;9.884;2022-12-18T05:33:30;17.57;;;8.30;;
16878;SDS011;8556;52.218;9.884;2022-12-18T05:35:59;16.30;;;8.33;;
16878;SDS011;8556;52.218;9.884;2022-12-18T05:38:28;16.00;;;8.13;;
16878;SDS011;8556;52.218;9.884;2022-12-18T05:40:58;16.60;;;7.57;;
16878;SDS011;8556;52.218;9.884;2022-12-18T05:43:25;17.97;;;8.60;;
16878;SDS011;8556;52.218;9.884;2022-12-18T05:45:53;18.03;;;8.60;;
16878;SDS011;8556;52.218;9.884;2022-12-18T05:48:20;16.13;;;8.17;;
16878;SDS011;8556;52.218;9.884;2022-12-18T05:50:48;15.37;;;8.07;;
16878;SDS011;8556;52.218;9.884;2022-12-18T05:53:16;14.67;;;7.27;;
16878;SDS011;8556;52.218;9.884;2022-12-18T05:55:45;10.37;;;6.43;;
16878;SDS011;8556;52.218;9.884;2022-12-18T05:58:14;16.50;;;7.43;;
16878;SDS011;8556;52.218;9.884;2022-12-18T06:00:41;15.40;;;8.13;;
16878;SDS011;8556;52.218;9.884;2022-12-18T06:03:11;14.27;;;7.53;;
16878;SDS011;8556;52.218;9.884;2022-12-18T06:05:39;13.10;;;7.20;;
16878;SDS011;8556;52.218;9.884;2022-12-18T06:08:08;13.03;;;7.03;;
16878;SDS011;8556;52.218;9.884;2022-12-18T06:10:35;15.60;;;7.27;;
16878;SDS011;8556;52.218;9.884;2022-12-18T06:13:02;16.37;;;7.57;;
16878;SDS011;8556;52.218;9.884;2022-12-18T06:15:31;13.47;;;7.50;;
16878;SDS011;8556;52.218;9.884;2022-12-18T06:17:59;18.60;;;8.37;;
16878;SDS011;8556;52.218;9.884;2022-12-18T06:20:26;17.13;;;8.17;;
16878;SDS011;8556;52.218;9.884;2022-12-18T06:22:56;19.13;;;8.77;;
16878;SDS011;8556;52.218;9.884;2022-12-18T06:25:23;20.10;;;9.57;;
16878;SDS011;8556;52.218;9.884;2022-12-18T06:27:49;21.67;;;10.23;;
16878;SDS011;8556;52.218;9.884;2022-12-18T06:30:16;20.77;;;10.47;;
16878;SDS011;8556;52.218;9.884;2022-12-18T06:32:44;21.90;;;9.93;;
16878;SDS011;8556;52.218;9.884;2022-12-18T06:35:11;23.50;;;9.97;;
16878;SDS011;8556;52.218;9.884;2022-12-18T06:37:38;19.50;;;9.70;;
16878;SDS011;8556;52.218;9.884;2022-12-18T06:40:05;20.27;;;9.93;;
16878;SDS011;8556;52.218;9.884;2022-12-18T06:42:33;19.30;;;9.97;;
16878;SDS011;8556;52.218;9.884;2022-12-18T06:45:00;17.80;;;8.67;;
16878;SDS011;8556;52.218;9.884;2022-12-18T06:47:26;19.10;;;9.23;;
16878;SDS011;8556;52.218;9.884;2022-12-18T06:49:54;19.00;;;9.07;;
16878;SDS011;8556;52.218;9.884;2022-12-18T06:52:21;16.80;;;8.80;;
16878;SDS011;8556;52.218;9.884;2022-12-18T06:54:48;18.40;;;9.13;;
16878;SDS011;8556;52.218;9.884;2022-12-18T06:57:15;16.83;;;8.90;;
16878;SDS011;8556;52.218;9.884;2022-12-18T06:59:41;17.23;;;7.70;;
16878;SDS011;8556;52.218;9.884;2022-12-18T07:02:10;16.97;;;8.30;;
16878;SDS011;8556;52.218;9.884;2022-12-18T07:04:37;16.70;;;7.73;;
16878;SDS011;8556;52.218;9.884;2022-12-18T07:07:05;16.23;;;8.33;;
16878;SDS011;8556;52.218;9.884;2022-12-18T07:09:32;13.97;;;6.83;;
16878;SDS011;8556;52.218;9.884;2022-12-18T07:12:01;16.20;;;7.43;;
16878;SDS011;8556;52.218;9.884;2022-12-18T07:14:29;17.10;;;7.60;;
16878;SDS011;8556;52.218;9.884;2022-12-18T07:16:56;15.93;;;7.50;;
16878;SDS011;8556;52.218;9.884;2022-12-18T07:19:23;14.57;;;6.87;;
16878;SDS011;8556;52.218;9.884;2022-12-18T07:21:50;13.07;;;7.17;;
16878;SDS011;8556;52.218;9.884;2022-12-18T07:24:18;15.27;;;7.27;;
16878;SDS011;8556;52.218;9.884;2022-12-18T07:26:45;14.10;;;6.80;;
16878;SDS011;8556;52.218;9.884;2022-12-18T07:29:12;12.57;;;6.40;;
16878;SDS011;8556;52.218;9.884;2022-12-18T07:31:39;13.23;;;7.03;;
16878;SDS011;8556;52.218;9.884;2022-12-18T07:34:09;16.27;;;7.87;;
16878;SDS011;8556;52.218;9.884;2022-12-18T07:36:36;13.30;;;7.37;;
16878;SDS011;8556;52.218;9.884;2022-12-18T07:39:03;13.43;;;6.13;;
16878;SDS011;8556;52.218;9.884;2022-12-18T07:41:31;14.00;;;6.47;;
16878;SDS011;8556;52.218;9.884;2022-12-18T07:43:58;15.23;;;7.63;;
16878;SDS011;8556;52.218;9.884;2022-12-18T07:46:24;15.10;;;7.50;;
16878;SDS011;8556;52.218;9.884;2022-12-18T07:48:51;16.13;;;8.20;;
16878;SDS011;8556;52.218;9.884;2022-12-18T07:51:18;15.00;;;7.10;;
16878;SDS011;8556;52.218;9.884;2022-12-18T07:53:45;17.83;;;8.03;;
16878;SDS011;8556;52.218;9.884;2022-12-18T07:56:12;12.17;;;6.03;;
16878;SDS011;8556;52.218;9.884;2022-12-18T07:58:40;13.00;;;6.53;;
16878;SDS011;8556;52.218;9.884;2022-12-18T08:01:09;11.93;;;6.63;;
16878;SDS011;8556;52.218;9.884;2022-12-18T08:03:39;16.43;;;5.63;;
16878;SDS011;8556;52.218;9.884;2022-12-18T08:06:07;12.83;;;6.17;;
16878;SDS011;8556;52.218;9.884;2022-12-18T08:08:35;10.63;;;6.17;;
16878;SDS011;8556;52.218;9.884;2022-12-18T08:11:02;13.83;;;6.20;;
16878;SDS011;8556;52.218;9.884;2022-12-18T08:13:29;13.77;;;5.97;;
16878;SDS011;8556;52.218;9.884;2022-12-18T08:15:58;10.77;;;4.93;;
16878;SDS011;8556;52.218;9.884;2022-12-18T08:18:26;9.10;;;5.40;;
16878;SDS011;8556;52.218;9.884;2022-12-18T08:20:53;11.17;;;5.40;;
16878;SDS011;8556;52.218;9.884;2022-12-18T08:23:21;13.43;;;5.80;;
16878;SDS011;8556;52.218;9.884;2022-12-18T08:25:48;14.07;;;5.97;;
16878;SDS011;8556;52.218;9.884;2022-12-18T08:28:16;14.57;;;6.90;;
16878;SDS011;8556;52.218;9.884;2022-12-18T08:30:43;14.43;;;6.93;;
16878;SDS011;8556;52.218;9.884;2022-12-18T08:33:11;11.23;;;5.13;;
16878;SDS011;8556;52.218;9.884;2022-12-18T08:35:38;13.10;;;5.40;;
16878;SDS011;8556;52.218;9.884;2022-12-18T08:38:05;11.47;;;5.87;;
16878;SDS011;8556;52.218;9.884;2022-12-18T08:40:32;13.63;;;7.03;;
16878;SDS011;8556;52.218;9.884;2022-12-18T08:42:58;12.13;;;6.47;;
16878;SDS011;8556;52.218;9.884;2022-12-18T08:45:42;10.50;;;5.47;;
16878;SDS011;8556;52.218;9.884;2022-12-18T08:48:11;13.03;;;6.03;;
16878;SDS011;8556;52.218;9.884;2022-12-18T08:50:37;13.77;;;6.00;;
16878;SDS011;8556;52.218;9.884;2022-12-18T08:53:04;13.77;;;5.80;;
16878;SDS011;8556;52.218;9.884;2022-12-18T08:55:31;12.93;;;5.17;;
16878;SDS011;8556;52.218;9.884;2022-12-18T08:57:57;10.77;;;4.77;;
16878;SDS011;8556;52.218;9.884;2022-12-18T09:00:24;11.57;;;4.23;;
16878;SDS011;8556;52.218;9.884;2022-12-18T09:02:51;9.70;;;4.53;;
16878;SDS011;8556;52.218;9.884;2022-12-18T09:05:19;8.70;;;5.20;;
16878;SDS011;8556;52.218;9.884;2022-12-18T09:07:46;9.67;;;4.53;;
16878;SDS011;8556;52.218;9.884;2022-12-18T09:10:13;8.37;;;4.00;;
16878;SDS011;8556;52.218;9.884;2022-12-18T09:12:40;10.27;;;4.30;;
16878;SDS011;8556;52.218;9.884;2022-12-18T09:15:06;9.00;;;3.87;;
16878;SDS011;8556;52.218;9.884;2022-12-18T09:17:34;7.50;;;3.80;;
16878;SDS011;8556;52.218;9.884;2022-12-18T09:20:00;9.00;;;4.73;;
16878;SDS011;8556;52.218;9.884;2022-12-18T09:22:29;7.93;;;4.70;;
16878;SDS011;8556;52.218;9.884;2022-12-18T09:24:55;8.83;;;4.00;;
16878;SDS011;8556;52.218;9.884;2022-12-18T09:27:22;9.13;;;4.07;;
16878;SDS011;8556;52.218;9.884;2022-12-18T09:29:49;10.27;;;4.60;;
16878;SDS011;8556;52.218;9.884;2022-12-18T09:32:16;7.83;;;3.70;;
16878;SDS011;8556;52.218;9.884;2022-12-18T09:34:42;6.07;;;3.80;;
16878;SDS011;8556;52.218;9.884;2022-12-18T09:37:09;12.87;;;3.97;;
16878;SDS011;8556;52.218;9.884;2022-12-18T09:39:37;7.53;;;3.63;;
16878;SDS011;8556;52.218;9.884;2022-12-18T09:42:04;9.30;;;4.40;;
16878;SDS011;8556;52.218;9.884;2022-12-18T09:44:32;11.70;;;5.50;;
16878;SDS011;8556;52.218;9.884;2022-12-18T09:47:06;11.37;;;5.40;;
16878;SDS011;8556;52.218;9.884;2022-12-18T09:49:40;9.23;;;4.90;;
16878;SDS011;8556;52.218;9.884;2022-12-18T09:52:11;10.90;;;5.37;;
16878;SDS011;8556;52.218;9.884;2022-12-18T09:54:44;11.00;;;5.27;;
16878;SDS011;8556;52.218;9.884;2022-12-18T09:57:14;11.73;;;5.80;;
16878;SDS011;8556;52.218;9.884;2022-12-18T09:59:44;24.77;;;6.20;;
16878;SDS011;8556;52.218;9.884;2022-12-18T10:02:16;18.60;;;6.90;;
16878;SDS011;8556;52.218;9.884;2022-12-18T10:04:48;15.70;;;6.63;;
16878;SDS011;8556;52.218;9.884;2022-12-18T10:07:22;12.37;;;6.47;;
16878;SDS011;8556;52.218;9.884;2022-12-18T10:09:58;13.67;;;7.10;;
16878;SDS011;8556;52.218;9.884;2022-12-18T10:12:30;16.50;;;7.23;;
16878;SDS011;8556;52.218;9.884;2022-12-18T10:15:01;15.73;;;7.47;;
16878;SDS011;8556;52.218;9.884;2022-12-18T10:17:33;12.60;;;6.23;;
16878;SDS011;8556;52.218;9.884;2022-12-18T10:20:09;11.47;;;5.47;;
16878;SDS011;8556;52.218;9.884;2022-12-18T10:22:42;10.17;;;4.00;;
16878;SDS011;8556;52.218;9.884;2022-12-18T10:25:18;6.60;;;3.63;;
16878;SDS011;8556;52.218;9.884;2022-12-18T10:27:50;5.77;;;3.50;;
16878;SDS011;8556;52.218;9.884;2022-12-18T10:30:21;10.97;;;4.30;;
16878;SDS011;8556;52.218;9.884;2022-12-18T10:32:49;6.00;;;3.10;;
16878;SDS011;8556;52.218;9.884;2022-12-18T10:35:18;5.17;;;2.40;;
16878;SDS011;8556;52.218;9.884;2022-12-18T10:38:00;3.50;;;1.80;;
16878;SDS011;8556;52.218;9.884;2022-12-18T10:40:49;5.13;;;2.27;;
16878;SDS011;8556;52.218;9.884;2022-12-18T10:43:19;5.80;;;2.50;;
16878;SDS011;8556;52.218;9.884;2022-12-18T10:45:58;4.83;;;2.50;;
16878;SDS011;8556;52.218;9.884;2022-12-18T10:48:27;7.10;;;3.80;;
16878;SDS011;8556;52.218;9.884;2022-12-18T10:50:54;7.10;;;4.40;;
16878;SDS011;8556;52.218;9.884;2022-12-18T10:53:22;8.53;;;4.10;;
16878;SDS011;8556;52.218;9.884;2022-12-18T10:55:53;7.53;;;4.10;;
16878;SDS011;8556;52.218;9.884;2022-12-18T10:58:30;4.40;;;2.67;;
16878;SDS011;8556;52.218;9.884;2022-12-18T11:01:06;6.03;;;2.83;;
16878;SDS011;8556;52.218;9.884;2022-12-18T11:03:36;6.00;;;3.07;;
16878;SDS011;8556;52.218;9.884;2022-12-18T11:06:05;6.00;;;3.30;;
16878;SDS011;8556;52.218;9.884;2022-12-18T11:08:34;4.53;;;2.73;;
16878;SDS011;8556;52.218;9.884;2022-12-18T11:11:02;4.73;;;2.60;;
16878;SDS011;8556;52.218;9.884;2022-12-18T11:13:33;4.67;;;2.37;;
16878;SDS011;8556;52.218;9.884;2022-12-18T11:16:00;4.83;;;2.60;;
16878;SDS011;8556;52.218;9.884;2022-12-18T11:18:28;4.53;;;2.70;;
16878;SDS011;8556;52.218;9.884;2022-12-18T11:20:56;5.00;;;2.70;;
16878;SDS011;8556;52.218;9.884;2022-12-18T11:23:25;6.20;;;2.70;;
16878;SDS011;8556;52.218;9.884;2022-12-18T11:25:56;4.27;;;2.70;;
16878;SDS011;8556;52.218;9.884;2022-12-18T11:28:28;8.33;;;3.83;;
16878;SDS011;8556;52.218;9.884;2022-12-18T11:31:16;5.63;;;3.47;;
16878;SDS011;8556;52.218;9.884;2022-12-18T11:33:46;6.97;;;3.20;;
16878;SDS011;8556;52.218;9.884;2022-12-18T11:36:18;7.40;;;2.97;;
16878;SDS011;8556;52.218;9.884;2022-12-18T11:38:47;5.73;;;2.63;;
16878;SDS011;8556;52.218;9.884;2022-12-18T11:41:21;4.03;;;2.40;;
16878;SDS011;8556;52.218;9.884;2022-12-18T11:44:15;4.83;;;2.80;;
16878;SDS011;8556;52.218;9.884;2022-12-18T11:46:49;6.10;;;3.10;;
16878;SDS011;8556;52.218;9.884;2022-12-18T11:49:22;4.73;;;2.90;;
16878;SDS011;8556;52.218;9.884;2022-12-18T11:51:53;3.60;;;2.30;;
16878;SDS011;8556;52.218;9.884;2022-12-18T11:54:26;4.27;;;2.47;;
16878;SDS011;8556;52.218;9.884;2022-12-18T11:56:53;3.40;;;2.70;;
16878;SDS011;8556;52.218;9.884;2022-12-18T11:59:28;7.57;;;2.93;;
16878;SDS011;8556;52.218;9.884;2022-12-18T12:02:03;7.23;;;2.80;;
16878;SDS011;8556;52.218;9.884;2022-12-18T12:04:48;4.87;;;2.80;;
16878;SDS011;8556;52.218;9.884;2022-12-18T12:07:32;5.40;;;3.20;;
16878;SDS011;8556;52.218;9.884;2022-12-18T12:10:08;4.97;;;3.07;;
16878;SDS011;8556;52.218;9.884;2022-12-18T12:12:45;7.50;;;3.57;;
16878;SDS011;8556;52.218;9.884;2022-12-18T12:15:29;6.00;;;3.20;;
16878;SDS011;8556;52.218;9.884;2022-12-18T12:18:08;6.10;;;3.00;;
16878;SDS011;8556;52.218;9.884;2022-12-18T12:20:49;3.83;;;2.90;;
16878;SDS011;8556;52.218;9.884;2022-12-18T12:23:27;6.73;;;3.20;;
16878;SDS011;8556;52.218;9.884;2022-12-18T12:26:06;5.20;;;2.80;;
16878;SDS011;8556;52.218;9.884;2022-12-18T12:28:41;3.70;;;2.70;;
16878;SDS011;8556;52.218;9.884;2022-12-18T12:31:23;7.17;;;3.20;;
16878;SDS011;8556;52.218;9.884;2022-12-18T12:34:01;6.23;;;3.33;;
16878;SDS011;8556;52.218;9.884;2022-12-18T12:36:36;6.00;;;2.93;;
16878;SDS011;8556;52.218;9.884;2022-12-18T12:39:11;5.53;;;3.07;;
16878;SDS011;8556;52.218;9.884;2022-12-18T12:41:43;9.23;;;2.87;;
16878;SDS011;8556;52.218;9.884;2022-12-18T12:44:30;9.23;;;5.33;;
16878;SDS011;8556;52.218;9.884;2022-12-18T12:47:04;11.70;;;6.43;;
16878;SDS011;8556;52.218;9.884;2022-12-18T12:49:39;15.57;;;6.67;;
16878;SDS011;8556;52.218;9.884;2022-12-18T12:52:13;16.60;;;7.60;;
16878;SDS011;8556;52.218;9.884;2022-12-18T12:54:46;16.07;;;7.50;;
16878;SDS011;8556;52.218;9.884;2022-12-18T12:57:15;16.57;;;8.50;;
16878;SDS011;8556;52.218;9.884;2022-12-18T12:59:50;16.80;;;8.57;;
16878;SDS011;8556;52.218;9.884;2022-12-18T13:02:28;19.20;;;9.60;;
16878;SDS011;8556;52.218;9.884;2022-12-18T13:05:01;21.13;;;9.40;;
16878;SDS011;8556;52.218;9.884;2022-12-18T13:07:35;20.30;;;10.10;;
16878;SDS011;8556;52.218;9.884;2022-12-18T13:10:13;20.73;;;9.63;;
16878;SDS011;8556;52.218;9.884;2022-12-18T13:12:52;20.97;;;10.47;;
16878;SDS011;8556;52.218;9.884;2022-12-18T13:15:22;20.80;;;10.50;;
16878;SDS011;8556;52.218;9.884;2022-12-18T13:20:46;21.60;;;10.40;;
16878;SDS011;8556;52.218;9.884;2022-12-18T13:23:28;18.83;;;9.97;;
16878;SDS011;8556;52.218;9.884;2022-12-18T13:25:58;20.40;;;9.73;;
16878;SDS011;8556;52.218;9.884;2022-12-18T13:34:36;24.83;;;9.43;;
16878;SDS011;8556;52.218;9.884;2022-12-18T13:43:31;20.20;;;9.07;;
16878;SDS011;8556;52.218;9.884;2022-12-18T13:46:03;20.93;;;8.00;;
16878;SDS011;8556;52.218;9.884;2022-12-18T13:48:32;21.33;;;8.80;;
16878;SDS011;8556;52.218;9.884;2022-12-18T13:51:04;20.20;;;9.30;;
16878;SDS011;8556;52.218;9.884;2022-12-18T13:53:33;21.97;;;10.40;;
16878;SDS011;8556;52.218;9.884;2022-12-18T13:56:03;21.30;;;9.07;;
16878;SDS011;8556;52.218;9.884;2022-12-18T13:58:30;20.80;;;9.67;;
16878;SDS011;8556;52.218;9.884;2022-12-18T14:00:58;22.70;;;10.33;;
16878;SDS011;8556;52.218;9.884;2022-12-18T14:03:27;19.60;;;9.53;;
16878;SDS011;8556;52.218;9.884;2022-12-18T14:05:56;20.27;;;8.97;;
16878;SDS011;8556;52.218;9.884;2022-12-18T14:08:29;18.90;;;9.60;;
16878;SDS011;8556;52.218;9.884;2022-12-18T14:11:00;20.20;;;9.87;;
16878;SDS011;8556;52.218;9.884;2022-12-18T14:13:28;21.43;;;10.50;;
16878;SDS011;8556;52.218;9.884;2022-12-18T14:15:59;17.33;;;9.67;;
16878;SDS011;8556;52.218;9.884;2022-12-18T14:18:29;19.97;;;9.70;;
16878;SDS011;8556;52.218;9.884;2022-12-18T14:21:02;19.87;;;8.97;;
16878;SDS011;8556;52.218;9.884;2022-12-18T14:23:33;18.33;;;9.23;;
16878;SDS011;8556;52.218;9.884;2022-12-18T14:26:02;27.57;;;11.60;;
16878;SDS011;8556;52.218;9.884;2022-12-18T14:28:45;23.97;;;11.93;;
16878;SDS011;8556;52.218;9.884;2022-12-18T14:31:16;27.80;;;11.70;;
16878;SDS011;8556;52.218;9.884;2022-12-18T14:33:44;22.90;;;11.77;;
16878;SDS011;8556;52.218;9.884;2022-12-18T14:36:13;23.67;;;11.30;;
16878;SDS011;8556;52.218;9.884;2022-12-18T14:38:43;25.87;;;11.60;;
16878;SDS011;8556;52.218;9.884;2022-12-18T14:41:15;22.93;;;11.40;;
16878;SDS011;8556;52.218;9.884;2022-12-18T14:43:44;24.03;;;11.90;;
16878;SDS011;8556;52.218;9.884;2022-12-18T14:46:25;22.53;;;10.90;;
16878;SDS011;8556;52.218;9.884;2022-12-18T14:48:54;22.50;;;11.80;;
16878;SDS011;8556;52.218;9.884;2022-12-18T14:51:23;25.67;;;12.53;;
16878;SDS011;8556;52.218;9.884;2022-12-18T14:53:56;24.33;;;12.33;;
16878;SDS011;8556;52.218;9.884;2022-12-18T14:56:26;25.00;;;11.80;;
16878;SDS011;8556;52.218;9.884;2022-12-18T14:58:55;25.87;;;12.53;;
16878;SDS011;8556;52.218;9.884;2022-12-18T15:01:25;26.20;;;11.97;;
16878;SDS011;8556;52.218;9.884;2022-12-18T15:03:54;33.37;;;14.70;;
16878;SDS011;8556;52.218;9.884;2022-12-18T15:06:24;30.67;;;14.60;;
16878;SDS011;8556;52.218;9.884;2022-12-18T15:08:54;28.83;;;12.37;;
16878;SDS011;8556;52.218;9.884;2022-12-18T15:11:26;25.17;;;13.10;;
16878;SDS011;8556;52.218;9.884;2022-12-18T15:16:58;27.20;;;12.30;;
16878;SDS011;8556;52.218;9.884;2022-12-18T15:19:32;26.40;;;12.67;;
16878;SDS011;8556;52.218;9.884;2022-12-18T15:22:01;26.73;;;12.77;;